KFTY/FTY METAR and TAF weather

Enter ICAO airport designator
Station Type Date Time Source
KFTY METAR 2021/04/13 07:53 UTC NOAA

KFTY 130753Z 00000KT 10SM CLR 12/09 A2999 RMK AO2 SLP149 T01220094


Station Type Date Time Source
KFTY Decoded METAR 2021/04/13 07:53 UTC NOAA

ATLANTA FULTON COUNTY AIRPORT , GA, United States (KFTY) 33-47N 84-31W 263M
Apr 13, 2021 - 03:53 AM EDT / 2021.04.13 0753 UTC
Wind: Calm:0
Visibility: 10 mile(s):0
Sky conditions: clear
Temperature: 54.0 F (12.2 C)
Dew Point: 48.9 F (9.4 C)
Relative Humidity: 82%
Pressure (altimeter): 29.99 in. Hg (1015 hPa)
ob: KFTY 130753Z 00000KT 10SM CLR 12/09 A2999 RMK AO2 SLP149 T01220094
cycle: 8

Station Type Date Time Source
KFTY TAF 2021/04/13 06:24 UTC NOAA

TAF KFTY 130522Z 1306/1406 VRB03KT P6SM FEW250
FM131800 24004KT P6SM FEW250
FM132300 24004KT P6SM FEW050 SCT250

Example: see airport list